sensor_id;sensor_type;location;lat;lon;timestamp;P1;durP1;ratioP1;P2;durP2;ratioP2
19609;SDS011;9952;47.122;-1.638;2022-10-31T00:02:28;7.47;;;4.47;;
19609;SDS011;9952;47.122;-1.638;2022-10-31T00:07:08;7.57;;;3.60;;
19609;SDS011;9952;47.122;-1.638;2022-10-31T00:11:49;5.80;;;3.00;;
19609;SDS011;9952;47.122;-1.638;2022-10-31T00:16:30;7.13;;;2.50;;
19609;SDS011;9952;47.122;-1.638;2022-10-31T00:21:11;5.27;;;2.93;;
19609;SDS011;9952;47.122;-1.638;2022-10-31T00:25:51;5.53;;;3.23;;
19609;SDS011;9952;47.122;-1.638;2022-10-31T00:30:32;6.13;;;3.20;;
19609;SDS011;9952;47.122;-1.638;2022-10-31T00:35:13;5.40;;;3.17;;
19609;SDS011;9952;47.122;-1.638;2022-10-31T00:39:55;6.47;;;4.10;;
19609;SDS011;9952;47.122;-1.638;2022-10-31T00:44:35;8.37;;;2.87;;
19609;SDS011;9952;47.122;-1.638;2022-10-31T00:49:16;4.53;;;2.90;;
19609;SDS011;9952;47.122;-1.638;2022-10-31T00:53:57;5.90;;;3.13;;
19609;SDS011;9952;47.122;-1.638;2022-10-31T00:58:37;5.17;;;3.10;;
19609;SDS011;9952;47.122;-1.638;2022-10-31T01:03:18;9.73;;;4.33;;
19609;SDS011;9952;47.122;-1.638;2022-10-31T01:07:59;9.23;;;4.30;;
19609;SDS011;9952;47.122;-1.638;2022-10-31T01:12:41;5.87;;;3.80;;
19609;SDS011;9952;47.122;-1.638;2022-10-31T01:17:23;6.00;;;3.23;;
19609;SDS011;9952;47.122;-1.638;2022-10-31T01:22:04;8.50;;;4.30;;
19609;SDS011;9952;47.122;-1.638;2022-10-31T01:26:44;6.90;;;4.00;;
19609;SDS011;9952;47.122;-1.638;2022-10-31T01:31:27;7.70;;;3.97;;
19609;SDS011;9952;47.122;-1.638;2022-10-31T01:36:13;7.57;;;3.67;;
19609;SDS011;9952;47.122;-1.638;2022-10-31T01:41:01;5.23;;;3.70;;
19609;SDS011;9952;47.122;-1.638;2022-10-31T01:45:42;5.60;;;3.70;;
19609;SDS011;9952;47.122;-1.638;2022-10-31T01:50:34;4.30;;;3.63;;
19609;SDS011;9952;47.122;-1.638;2022-10-31T01:55:22;7.93;;;3.40;;
19609;SDS011;9952;47.122;-1.638;2022-10-31T02:00:07;6.90;;;3.47;;
19609;SDS011;9952;47.122;-1.638;2022-10-31T02:04:49;6.03;;;3.03;;
19609;SDS011;9952;47.122;-1.638;2022-10-31T02:09:30;5.70;;;3.00;;
19609;SDS011;9952;47.122;-1.638;2022-10-31T02:14:14;2.63;;;2.43;;
19609;SDS011;9952;47.122;-1.638;2022-10-31T02:18:55;7.10;;;2.93;;
19609;SDS011;9952;47.122;-1.638;2022-10-31T02:34:10;4.77;;;2.83;;
19609;SDS011;9952;47.122;-1.638;2022-10-31T02:49:07;6.43;;;3.07;;
19609;SDS011;9952;47.122;-1.638;2022-10-31T02:53:52;4.70;;;2.90;;
19609;SDS011;9952;47.122;-1.638;2022-10-31T02:58:34;3.70;;;2.80;;
19609;SDS011;9952;47.122;-1.638;2022-10-31T03:03:33;2.67;;;2.33;;
19609;SDS011;9952;47.122;-1.638;2022-10-31T03:18:12;7.27;;;2.33;;
19609;SDS011;9952;47.122;-1.638;2022-10-31T03:23:07;6.13;;;2.90;;
19609;SDS011;9952;47.122;-1.638;2022-10-31T03:27:52;3.73;;;2.70;;
19609;SDS011;9952;47.122;-1.638;2022-10-31T03:32:38;3.10;;;2.50;;
19609;SDS011;9952;47.122;-1.638;2022-10-31T03:37:25;7.83;;;3.47;;
19609;SDS011;9952;47.122;-1.638;2022-10-31T03:42:11;5.23;;;3.17;;
19609;SDS011;9952;47.122;-1.638;2022-10-31T03:46:58;8.57;;;3.60;;
19609;SDS011;9952;47.122;-1.638;2022-10-31T03:51:42;7.00;;;5.07;;
19609;SDS011;9952;47.122;-1.638;2022-10-31T03:56:29;13.03;;;7.53;;
19609;SDS011;9952;47.122;-1.638;2022-10-31T04:01:20;11.13;;;7.23;;
19609;SDS011;9952;47.122;-1.638;2022-10-31T04:06:03;14.60;;;6.63;;
19609;SDS011;9952;47.122;-1.638;2022-10-31T04:10:51;11.70;;;5.10;;
19609;SDS011;9952;47.122;-1.638;2022-10-31T04:15:34;9.00;;;4.10;;
19609;SDS011;9952;47.122;-1.638;2022-10-31T04:20:17;8.80;;;4.07;;
19609;SDS011;9952;47.122;-1.638;2022-10-31T04:24:58;7.97;;;3.40;;
19609;SDS011;9952;47.122;-1.638;2022-10-31T04:29:39;6.73;;;3.00;;
19609;SDS011;9952;47.122;-1.638;2022-10-31T04:34:19;5.63;;;2.77;;
19609;SDS011;9952;47.122;-1.638;2022-10-31T04:39:00;4.90;;;2.73;;
19609;SDS011;9952;47.122;-1.638;2022-10-31T04:43:41;5.90;;;3.00;;
19609;SDS011;9952;47.122;-1.638;2022-10-31T04:48:22;8.97;;;2.97;;
19609;SDS011;9952;47.122;-1.638;2022-10-31T04:53:02;6.70;;;2.33;;
19609;SDS011;9952;47.122;-1.638;2022-10-31T04:57:44;7.80;;;2.77;;
19609;SDS011;9952;47.122;-1.638;2022-10-31T05:02:26;6.97;;;3.00;;
19609;SDS011;9952;47.122;-1.638;2022-10-31T05:07:07;5.90;;;2.37;;
19609;SDS011;9952;47.122;-1.638;2022-10-31T05:11:48;5.37;;;2.67;;
19609;SDS011;9952;47.122;-1.638;2022-10-31T05:16:29;4.87;;;3.00;;
19609;SDS011;9952;47.122;-1.638;2022-10-31T05:21:09;7.43;;;3.20;;
19609;SDS011;9952;47.122;-1.638;2022-10-31T05:25:50;6.63;;;3.13;;
19609;SDS011;9952;47.122;-1.638;2022-10-31T05:30:31;8.43;;;3.07;;
19609;SDS011;9952;47.122;-1.638;2022-10-31T05:35:15;5.57;;;3.03;;
19609;SDS011;9952;47.122;-1.638;2022-10-31T05:39:58;5.53;;;3.00;;
19609;SDS011;9952;47.122;-1.638;2022-10-31T05:44:39;6.87;;;3.27;;
19609;SDS011;9952;47.122;-1.638;2022-10-31T05:49:20;7.73;;;3.23;;
19609;SDS011;9952;47.122;-1.638;2022-10-31T05:54:00;10.67;;;3.60;;
19609;SDS011;9952;47.122;-1.638;2022-10-31T05:58:41;9.83;;;4.00;;
19609;SDS011;9952;47.122;-1.638;2022-10-31T06:03:22;9.07;;;2.90;;
19609;SDS011;9952;47.122;-1.638;2022-10-31T06:08:03;7.53;;;3.03;;
19609;SDS011;9952;47.122;-1.638;2022-10-31T06:12:44;6.10;;;2.77;;
19609;SDS011;9952;47.122;-1.638;2022-10-31T06:17:24;4.83;;;2.83;;
19609;SDS011;9952;47.122;-1.638;2022-10-31T06:22:05;5.97;;;2.43;;
19609;SDS011;9952;47.122;-1.638;2022-10-31T06:26:46;4.30;;;2.37;;
19609;SDS011;9952;47.122;-1.638;2022-10-31T06:31:27;5.87;;;2.77;;
19609;SDS011;9952;47.122;-1.638;2022-10-31T06:36:08;6.10;;;3.20;;
19609;SDS011;9952;47.122;-1.638;2022-10-31T06:40:49;4.40;;;2.60;;
19609;SDS011;9952;47.122;-1.638;2022-10-31T06:45:30;6.27;;;3.10;;
19609;SDS011;9952;47.122;-1.638;2022-10-31T06:50:10;5.40;;;2.87;;
19609;SDS011;9952;47.122;-1.638;2022-10-31T06:54:51;8.10;;;3.20;;
19609;SDS011;9952;47.122;-1.638;2022-10-31T06:59:32;7.13;;;3.27;;
19609;SDS011;9952;47.122;-1.638;2022-10-31T07:04:13;6.70;;;3.83;;
19609;SDS011;9952;47.122;-1.638;2022-10-31T07:08:54;9.37;;;3.43;;
19609;SDS011;9952;47.122;-1.638;2022-10-31T07:13:34;7.07;;;3.40;;
19609;SDS011;9952;47.122;-1.638;2022-10-31T07:18:15;7.93;;;3.30;;
19609;SDS011;9952;47.122;-1.638;2022-10-31T07:22:56;8.00;;;4.00;;
19609;SDS011;9952;47.122;-1.638;2022-10-31T07:27:37;6.43;;;3.60;;
19609;SDS011;9952;47.122;-1.638;2022-10-31T07:32:19;9.33;;;4.00;;
19609;SDS011;9952;47.122;-1.638;2022-10-31T07:37:00;6.73;;;4.10;;
19609;SDS011;9952;47.122;-1.638;2022-10-31T07:41:40;6.60;;;4.17;;
19609;SDS011;9952;47.122;-1.638;2022-10-31T07:46:21;9.50;;;4.57;;
19609;SDS011;9952;47.122;-1.638;2022-10-31T07:51:02;9.97;;;4.73;;
19609;SDS011;9952;47.122;-1.638;2022-10-31T07:55:43;7.63;;;4.67;;
19609;SDS011;9952;47.122;-1.638;2022-10-31T08:00:24;7.20;;;4.20;;
19609;SDS011;9952;47.122;-1.638;2022-10-31T08:05:05;9.90;;;4.73;;
19609;SDS011;9952;47.122;-1.638;2022-10-31T08:09:46;14.83;;;5.07;;
19609;SDS011;9952;47.122;-1.638;2022-10-31T08:14:27;10.57;;;6.03;;
19609;SDS011;9952;47.122;-1.638;2022-10-31T08:19:08;10.83;;;5.60;;
19609;SDS011;9952;47.122;-1.638;2022-10-31T08:23:49;14.63;;;6.10;;
19609;SDS011;9952;47.122;-1.638;2022-10-31T08:28:29;19.30;;;6.80;;
19609;SDS011;9952;47.122;-1.638;2022-10-31T08:37:55;13.20;;;7.33;;
19609;SDS011;9952;47.122;-1.638;2022-10-31T08:42:38;14.63;;;7.27;;
19609;SDS011;9952;47.122;-1.638;2022-10-31T08:47:21;14.93;;;7.20;;
19609;SDS011;9952;47.122;-1.638;2022-10-31T08:52:02;15.90;;;6.83;;
19609;SDS011;9952;47.122;-1.638;2022-10-31T08:56:43;13.83;;;7.30;;
19609;SDS011;9952;47.122;-1.638;2022-10-31T09:01:24;11.83;;;6.50;;
19609;SDS011;9952;47.122;-1.638;2022-10-31T09:06:04;12.87;;;6.20;;
19609;SDS011;9952;47.122;-1.638;2022-10-31T09:10:48;18.87;;;7.20;;
19609;SDS011;9952;47.122;-1.638;2022-10-31T09:15:29;15.97;;;6.80;;
19609;SDS011;9952;47.122;-1.638;2022-10-31T09:20:10;14.43;;;7.10;;
19609;SDS011;9952;47.122;-1.638;2022-10-31T09:24:52;15.37;;;7.27;;
19609;SDS011;9952;47.122;-1.638;2022-10-31T09:29:33;12.33;;;7.30;;
19609;SDS011;9952;47.122;-1.638;2022-10-31T09:34:13;11.87;;;7.10;;
19609;SDS011;9952;47.122;-1.638;2022-10-31T09:38:54;14.20;;;7.27;;
19609;SDS011;9952;47.122;-1.638;2022-10-31T09:53:47;17.87;;;8.73;;
19609;SDS011;9952;47.122;-1.638;2022-10-31T09:58:30;20.60;;;9.13;;
19609;SDS011;9952;47.122;-1.638;2022-10-31T10:03:34;16.87;;;9.27;;
19609;SDS011;9952;47.122;-1.638;2022-10-31T10:08:20;19.50;;;9.70;;
19609;SDS011;9952;47.122;-1.638;2022-10-31T10:13:11;17.50;;;9.00;;
19609;SDS011;9952;47.122;-1.638;2022-10-31T10:18:17;15.03;;;8.90;;
19609;SDS011;9952;47.122;-1.638;2022-10-31T10:28:32;12.87;;;7.50;;
19609;SDS011;9952;47.122;-1.638;2022-10-31T10:33:19;16.17;;;7.97;;
19609;SDS011;9952;47.122;-1.638;2022-10-31T10:43:19;16.77;;;8.33;;
19609;SDS011;9952;47.122;-1.638;2022-10-31T10:48:35;14.67;;;7.87;;
19609;SDS011;9952;47.122;-1.638;2022-10-31T10:58:29;12.27;;;8.17;;
19609;SDS011;9952;47.122;-1.638;2022-10-31T11:03:10;15.70;;;8.40;;
19609;SDS011;9952;47.122;-1.638;2022-10-31T11:07:50;15.43;;;8.23;;
19609;SDS011;9952;47.122;-1.638;2022-10-31T11:12:32;14.90;;;8.07;;
19609;SDS011;9952;47.122;-1.638;2022-10-31T11:17:22;15.67;;;7.83;;
19609;SDS011;9952;47.122;-1.638;2022-10-31T11:22:15;19.53;;;8.83;;
19609;SDS011;9952;47.122;-1.638;2022-10-31T11:27:19;14.87;;;8.07;;
19609;SDS011;9952;47.122;-1.638;2022-10-31T11:32:01;16.27;;;7.97;;
19609;SDS011;9952;47.122;-1.638;2022-10-31T11:36:43;16.17;;;7.50;;
19609;SDS011;9952;47.122;-1.638;2022-10-31T11:41:32;18.40;;;7.17;;
19609;SDS011;9952;47.122;-1.638;2022-10-31T11:46:15;17.20;;;7.40;;
19609;SDS011;9952;47.122;-1.638;2022-10-31T11:51:09;16.90;;;8.13;;
19609;SDS011;9952;47.122;-1.638;2022-10-31T11:55:59;12.60;;;7.07;;
19609;SDS011;9952;47.122;-1.638;2022-10-31T12:00:54;15.33;;;7.43;;
19609;SDS011;9952;47.122;-1.638;2022-10-31T12:05:36;13.17;;;6.60;;
19609;SDS011;9952;47.122;-1.638;2022-10-31T12:10:19;18.33;;;7.00;;
19609;SDS011;9952;47.122;-1.638;2022-10-31T12:15:10;14.30;;;6.13;;
19609;SDS011;9952;47.122;-1.638;2022-10-31T12:20:00;12.67;;;6.23;;
19609;SDS011;9952;47.122;-1.638;2022-10-31T12:30:18;13.80;;;6.27;;
19609;SDS011;9952;47.122;-1.638;2022-10-31T12:40:24;11.77;;;6.17;;
19609;SDS011;9952;47.122;-1.638;2022-10-31T12:45:34;10.53;;;6.23;;
19609;SDS011;9952;47.122;-1.638;2022-10-31T13:00:21;18.03;;;6.43;;
19609;SDS011;9952;47.122;-1.638;2022-10-31T13:05:11;18.83;;;7.00;;
19609;SDS011;9952;47.122;-1.638;2022-10-31T13:10:29;17.40;;;7.43;;
19609;SDS011;9952;47.122;-1.638;2022-10-31T13:20:20;17.63;;;6.83;;
19609;SDS011;9952;47.122;-1.638;2022-10-31T13:25:13;20.47;;;7.13;;
19609;SDS011;9952;47.122;-1.638;2022-10-31T13:29:59;15.80;;;6.37;;
19609;SDS011;9952;47.122;-1.638;2022-10-31T13:34:52;13.83;;;5.80;;
19609;SDS011;9952;47.122;-1.638;2022-10-31T13:44:36;15.57;;;5.87;;
19609;SDS011;9952;47.122;-1.638;2022-10-31T13:49:24;18.97;;;6.03;;
19609;SDS011;9952;47.122;-1.638;2022-10-31T13:54:21;23.70;;;5.27;;
19609;SDS011;9952;47.122;-1.638;2022-10-31T13:59:12;13.47;;;5.07;;
19609;SDS011;9952;47.122;-1.638;2022-10-31T14:04:22;15.60;;;5.00;;
19609;SDS011;9952;47.122;-1.638;2022-10-31T14:09:02;14.43;;;4.20;;
19609;SDS011;9952;47.122;-1.638;2022-10-31T14:13:44;16.47;;;4.30;;
19609;SDS011;9952;47.122;-1.638;2022-10-31T14:18:31;15.40;;;4.40;;
19609;SDS011;9952;47.122;-1.638;2022-10-31T14:23:32;11.23;;;3.60;;
19609;SDS011;9952;47.122;-1.638;2022-10-31T14:28:30;5.67;;;2.00;;
19609;SDS011;9952;47.122;-1.638;2022-10-31T14:33:16;10.97;;;2.97;;
19609;SDS011;9952;47.122;-1.638;2022-10-31T14:47:56;10.33;;;3.53;;
19609;SDS011;9952;47.122;-1.638;2022-10-31T14:52:38;7.90;;;2.90;;
19609;SDS011;9952;47.122;-1.638;2022-10-31T14:57:28;10.27;;;3.47;;
19609;SDS011;9952;47.122;-1.638;2022-10-31T15:02:23;11.13;;;3.87;;
19609;SDS011;9952;47.122;-1.638;2022-10-31T15:07:21;14.83;;;3.93;;
19609;SDS011;9952;47.122;-1.638;2022-10-31T15:17:02;10.97;;;3.77;;
19609;SDS011;9952;47.122;-1.638;2022-10-31T15:21:44;10.73;;;4.50;;
19609;SDS011;9952;47.122;-1.638;2022-10-31T15:26:27;11.10;;;4.97;;
19609;SDS011;9952;47.122;-1.638;2022-10-31T15:31:14;12.83;;;5.23;;
19609;SDS011;9952;47.122;-1.638;2022-10-31T15:35:57;14.50;;;4.80;;
19609;SDS011;9952;47.122;-1.638;2022-10-31T15:40:39;14.73;;;4.93;;
19609;SDS011;9952;47.122;-1.638;2022-10-31T15:45:34;16.97;;;5.17;;
19609;SDS011;9952;47.122;-1.638;2022-10-31T15:50:19;13.67;;;5.33;;
19609;SDS011;9952;47.122;-1.638;2022-10-31T15:59:50;19.27;;;7.20;;
19609;SDS011;9952;47.122;-1.638;2022-10-31T16:04:32;18.17;;;7.13;;
19609;SDS011;9952;47.122;-1.638;2022-10-31T16:09:22;20.67;;;7.17;;
19609;SDS011;9952;47.122;-1.638;2022-10-31T16:18:55;21.40;;;8.43;;
19609;SDS011;9952;47.122;-1.638;2022-10-31T16:23:36;21.60;;;8.30;;
19609;SDS011;9952;47.122;-1.638;2022-10-31T16:28:25;21.27;;;8.57;;
19609;SDS011;9952;47.122;-1.638;2022-10-31T16:38:20;18.87;;;8.23;;
19609;SDS011;9952;47.122;-1.638;2022-10-31T16:43:01;16.53;;;7.03;;
19609;SDS011;9952;47.122;-1.638;2022-10-31T16:47:42;19.23;;;8.07;;
19609;SDS011;9952;47.122;-1.638;2022-10-31T16:52:23;21.73;;;7.47;;
19609;SDS011;9952;47.122;-1.638;2022-10-31T16:57:04;23.77;;;6.97;;
19609;SDS011;9952;47.122;-1.638;2022-10-31T17:01:47;20.00;;;5.97;;
19609;SDS011;9952;47.122;-1.638;2022-10-31T17:06:29;22.60;;;6.30;;
19609;SDS011;9952;47.122;-1.638;2022-10-31T17:11:21;24.83;;;5.67;;
19609;SDS011;9952;47.122;-1.638;2022-10-31T17:16:04;15.57;;;5.77;;
19609;SDS011;9952;47.122;-1.638;2022-10-31T17:20:46;22.50;;;5.70;;
19609;SDS011;9952;47.122;-1.638;2022-10-31T17:25:28;20.03;;;5.63;;
19609;SDS011;9952;47.122;-1.638;2022-10-31T17:30:11;17.43;;;3.50;;
19609;SDS011;9952;47.122;-1.638;2022-10-31T17:34:53;11.27;;;3.00;;
19609;SDS011;9952;47.122;-1.638;2022-10-31T17:39:34;11.30;;;2.50;;
19609;SDS011;9952;47.122;-1.638;2022-10-31T17:44:15;6.33;;;1.67;;
19609;SDS011;9952;47.122;-1.638;2022-10-31T17:48:56;8.17;;;1.90;;
19609;SDS011;9952;47.122;-1.638;2022-10-31T17:53:39;6.90;;;2.30;;
19609;SDS011;9952;47.122;-1.638;2022-10-31T17:58:20;11.13;;;2.10;;
19609;SDS011;9952;47.122;-1.638;2022-10-31T18:03:01;11.70;;;2.10;;
19609;SDS011;9952;47.122;-1.638;2022-10-31T18:07:43;10.13;;;2.00;;
19609;SDS011;9952;47.122;-1.638;2022-10-31T18:12:24;15.27;;;1.80;;
19609;SDS011;9952;47.122;-1.638;2022-10-31T18:17:07;13.50;;;2.33;;
19609;SDS011;9952;47.122;-1.638;2022-10-31T18:21:48;7.27;;;1.83;;
19609;SDS011;9952;47.122;-1.638;2022-10-31T18:26:29;9.00;;;1.60;;
19609;SDS011;9952;47.122;-1.638;2022-10-31T18:31:10;8.03;;;1.97;;
19609;SDS011;9952;47.122;-1.638;2022-10-31T18:35:51;10.97;;;1.80;;
19609;SDS011;9952;47.122;-1.638;2022-10-31T18:40:32;9.93;;;1.93;;
19609;SDS011;9952;47.122;-1.638;2022-10-31T18:45:14;11.87;;;1.67;;
19609;SDS011;9952;47.122;-1.638;2022-10-31T18:49:55;6.47;;;1.30;;
19609;SDS011;9952;47.122;-1.638;2022-10-31T18:54:35;5.50;;;1.13;;
19609;SDS011;9952;47.122;-1.638;2022-10-31T18:59:16;4.20;;;1.17;;
19609;SDS011;9952;47.122;-1.638;2022-10-31T19:03:57;11.03;;;1.97;;
19609;SDS011;9952;47.122;-1.638;2022-10-31T19:08:38;15.00;;;1.83;;
19609;SDS011;9952;47.122;-1.638;2022-10-31T19:13:19;22.47;;;3.80;;
19609;SDS011;9952;47.122;-1.638;2022-10-31T19:18:00;14.47;;;2.73;;
19609;SDS011;9952;47.122;-1.638;2022-10-31T19:22:41;15.53;;;2.60;;
19609;SDS011;9952;47.122;-1.638;2022-10-31T19:27:22;11.17;;;2.27;;
19609;SDS011;9952;47.122;-1.638;2022-10-31T19:32:06;13.23;;;2.13;;
19609;SDS011;9952;47.122;-1.638;2022-10-31T19:36:47;17.73;;;2.97;;
19609;SDS011;9952;47.122;-1.638;2022-10-31T19:41:28;14.10;;;2.13;;
19609;SDS011;9952;47.122;-1.638;2022-10-31T19:46:11;13.47;;;1.70;;
19609;SDS011;9952;47.122;-1.638;2022-10-31T19:50:53;14.67;;;2.27;;
19609;SDS011;9952;47.122;-1.638;2022-10-31T19:55:44;16.97;;;2.10;;
19609;SDS011;9952;47.122;-1.638;2022-10-31T20:00:25;12.87;;;2.17;;
19609;SDS011;9952;47.122;-1.638;2022-10-31T20:05:06;15.47;;;2.27;;
19609;SDS011;9952;47.122;-1.638;2022-10-31T20:09:47;13.40;;;2.73;;
19609;SDS011;9952;47.122;-1.638;2022-10-31T20:14:27;16.60;;;2.37;;
19609;SDS011;9952;47.122;-1.638;2022-10-31T20:19:08;20.27;;;3.13;;
19609;SDS011;9952;47.122;-1.638;2022-10-31T20:23:53;15.83;;;2.33;;
19609;SDS011;9952;47.122;-1.638;2022-10-31T20:28:35;19.50;;;3.40;;
19609;SDS011;9952;47.122;-1.638;2022-10-31T20:33:16;15.50;;;2.77;;
19609;SDS011;9952;47.122;-1.638;2022-10-31T20:37:57;12.57;;;2.77;;
19609;SDS011;9952;47.122;-1.638;2022-10-31T20:42:38;23.33;;;3.20;;
19609;SDS011;9952;47.122;-1.638;2022-10-31T20:47:19;19.87;;;3.40;;
19609;SDS011;9952;47.122;-1.638;2022-10-31T20:52:00;18.00;;;2.53;;
19609;SDS011;9952;47.122;-1.638;2022-10-31T20:56:41;16.07;;;2.30;;
19609;SDS011;9952;47.122;-1.638;2022-10-31T21:01:28;20.03;;;2.90;;
19609;SDS011;9952;47.122;-1.638;2022-10-31T21:06:12;23.17;;;3.47;;
19609;SDS011;9952;47.122;-1.638;2022-10-31T21:10:53;17.67;;;3.73;;
19609;SDS011;9952;47.122;-1.638;2022-10-31T21:15:34;17.93;;;2.53;;
19609;SDS011;9952;47.122;-1.638;2022-10-31T21:20:16;20.93;;;3.10;;
19609;SDS011;9952;47.122;-1.638;2022-10-31T21:24:56;21.37;;;2.93;;
19609;SDS011;9952;47.122;-1.638;2022-10-31T21:29:37;17.47;;;2.17;;
19609;SDS011;9952;47.122;-1.638;2022-10-31T21:34:18;16.20;;;2.37;;
19609;SDS011;9952;47.122;-1.638;2022-10-31T21:38:58;19.77;;;3.37;;
19609;SDS011;9952;47.122;-1.638;2022-10-31T21:43:40;15.63;;;2.37;;
19609;SDS011;9952;47.122;-1.638;2022-10-31T21:48:23;20.10;;;2.50;;
19609;SDS011;9952;47.122;-1.638;2022-10-31T21:53:07;12.93;;;2.10;;
19609;SDS011;9952;47.122;-1.638;2022-10-31T21:58:07;21.60;;;2.80;;
19609;SDS011;9952;47.122;-1.638;2022-10-31T22:02:47;15.10;;;2.30;;
19609;SDS011;9952;47.122;-1.638;2022-10-31T22:07:29;12.67;;;2.20;;
19609;SDS011;9952;47.122;-1.638;2022-10-31T22:12:11;15.63;;;2.20;;
19609;SDS011;9952;47.122;-1.638;2022-10-31T22:16:54;13.80;;;2.20;;
19609;SDS011;9952;47.122;-1.638;2022-10-31T22:21:37;10.50;;;1.57;;
19609;SDS011;9952;47.122;-1.638;2022-10-31T22:26:20;13.43;;;2.63;;
19609;SDS011;9952;47.122;-1.638;2022-10-31T22:31:04;14.17;;;2.43;;
19609;SDS011;9952;47.122;-1.638;2022-10-31T22:35:46;15.53;;;2.77;;
19609;SDS011;9952;47.122;-1.638;2022-10-31T22:40:27;16.87;;;2.67;;
19609;SDS011;9952;47.122;-1.638;2022-10-31T22:45:08;21.90;;;2.63;;
19609;SDS011;9952;47.122;-1.638;2022-10-31T22:49:49;9.93;;;2.40;;
19609;SDS011;9952;47.122;-1.638;2022-10-31T22:54:30;12.17;;;2.33;;
19609;SDS011;9952;47.122;-1.638;2022-10-31T22:59:11;16.43;;;2.53;;
19609;SDS011;9952;47.122;-1.638;2022-10-31T23:03:53;21.07;;;2.80;;
19609;SDS011;9952;47.122;-1.638;2022-10-31T23:08:35;17.13;;;2.33;;
19609;SDS011;9952;47.122;-1.638;2022-10-31T23:13:17;12.47;;;1.90;;
19609;SDS011;9952;47.122;-1.638;2022-10-31T23:18:16;19.60;;;2.37;;
19609;SDS011;9952;47.122;-1.638;2022-10-31T23:22:57;17.83;;;2.33;;
19609;SDS011;9952;47.122;-1.638;2022-10-31T23:27:38;16.30;;;2.23;;
19609;SDS011;9952;47.122;-1.638;2022-10-31T23:32:20;13.63;;;2.40;;
19609;SDS011;9952;47.122;-1.638;2022-10-31T23:37:05;14.90;;;2.30;;
19609;SDS011;9952;47.122;-1.638;2022-10-31T23:41:46;17.40;;;1.97;;
19609;SDS011;9952;47.122;-1.638;2022-10-31T23:46:27;11.10;;;2.20;;
19609;SDS011;9952;47.122;-1.638;2022-10-31T23:51:07;15.40;;;2.00;;
19609;SDS011;9952;47.122;-1.638;2022-10-31T23:55:48;24.10;;;2.40;;
